createdAt,value
2023-02-15T00:01:30.451Z,25.40
2023-02-15T00:03:57.688Z,25.50
2023-02-15T00:06:24.914Z,22.93
2023-02-15T00:08:52.070Z,24.77
2023-02-15T00:11:40.620Z,24.07
2023-02-15T00:14:07.901Z,25.48
2023-02-15T00:16:35.186Z,24.23
2023-02-15T00:19:02.937Z,24.25
2023-02-15T00:21:30.940Z,25.50
2023-02-15T00:23:58.722Z,27.63
2023-02-15T00:26:26.105Z,26.08
2023-02-15T00:28:53.332Z,26.48
2023-02-15T00:31:20.646Z,27.48
2023-02-15T00:33:47.914Z,27.30
2023-02-15T00:36:15.079Z,27.63
2023-02-15T00:38:42.252Z,26.60
2023-02-15T00:41:09.487Z,27.87
2023-02-15T00:43:36.774Z,25.63
2023-02-15T00:46:04.696Z,25.33
2023-02-15T00:48:32.151Z,24.90
2023-02-15T00:50:59.887Z,24.48
2023-02-15T00:53:27.373Z,23.90
2023-02-15T00:55:54.698Z,27.70
2023-02-15T00:58:21.920Z,25.92
2023-02-15T01:00:49.216Z,25.65
2023-02-15T01:03:16.709Z,25.50
2023-02-15T01:05:43.948Z,26.40
2023-02-15T01:08:11.191Z,25.00
2023-02-15T01:10:38.431Z,26.40
2023-02-15T01:13:05.628Z,26.80
2023-02-15T01:15:32.807Z,24.95
2023-02-15T01:17:59.963Z,24.30
2023-02-15T01:20:27.835Z,24.20
2023-02-15T01:22:55.042Z,24.55
2023-02-15T01:25:22.601Z,25.02
2023-02-15T01:27:49.770Z,24.80
2023-02-15T01:30:17.140Z,25.25
2023-02-15T01:32:44.376Z,23.75
2023-02-15T01:35:11.608Z,24.67
2023-02-15T01:37:38.864Z,25.02
2023-02-15T01:40:07.303Z,24.33
2023-02-15T01:42:34.487Z,22.77
2023-02-15T01:45:04.080Z,26.92
2023-02-15T01:47:40.814Z,26.25
2023-02-15T01:50:07.955Z,27.00
2023-02-15T01:52:36.032Z,25.83
2023-02-15T01:55:03.468Z,29.20
2023-02-15T01:57:30.782Z,27.55
2023-02-15T01:59:58.623Z,27.90
2023-02-15T02:02:26.063Z,27.90
2023-02-15T02:04:54.133Z,27.10
2023-02-15T02:07:21.869Z,26.63
2023-02-15T02:09:49.256Z,27.23
2023-02-15T02:12:17.265Z,23.77
2023-02-15T02:14:44.396Z,25.20
2023-02-15T02:17:24.497Z,23.48
2023-02-15T02:19:54.785Z,24.33
2023-02-15T02:22:21.949Z,25.55
2023-02-15T02:25:07.845Z,28.40
2023-02-15T02:27:40.254Z,28.98
2023-02-15T02:30:10.237Z,29.13
2023-02-15T02:33:01.624Z,29.33
2023-02-15T02:35:34.993Z,29.85
2023-02-15T02:38:05.325Z,30.33
2023-02-15T02:40:38.401Z,28.80
2023-02-15T02:43:20.789Z,28.88
2023-02-15T02:46:02.726Z,29.50
2023-02-15T02:48:31.266Z,30.13
2023-02-15T02:50:58.427Z,29.88
2023-02-15T02:53:25.716Z,30.45
2023-02-15T02:55:57.311Z,29.63
2023-02-15T02:58:38.670Z,31.38
2023-02-15T03:01:07.810Z,32.60
2023-02-15T03:03:51.550Z,29.63
2023-02-15T03:06:28.989Z,29.57
2023-02-15T03:08:58.957Z,31.70
2023-02-15T03:11:26.112Z,29.00
2023-02-15T03:13:53.362Z,31.57
2023-02-15T03:16:29.621Z,30.92
2023-02-15T03:19:03.144Z,30.85
2023-02-15T03:21:34.541Z,30.95
2023-02-15T03:24:09.558Z,31.80
2023-02-15T03:26:36.736Z,30.55
2023-02-15T03:29:03.932Z,31.58
2023-02-15T03:31:31.855Z,30.02
2023-02-15T03:34:00.170Z,30.63
2023-02-15T03:36:37.474Z,31.00
2023-02-15T03:39:09.562Z,31.67
2023-02-15T03:41:38.948Z,32.88
2023-02-15T03:44:13.956Z,31.25
2023-02-15T03:46:48.521Z,30.75
2023-02-15T03:49:15.830Z,31.65
2023-02-15T03:51:44.196Z,30.58
2023-02-15T03:54:11.357Z,30.10
2023-02-15T03:56:39.187Z,30.52
2023-02-15T03:59:24.705Z,31.42
2023-02-15T04:02:10.699Z,30.05
2023-02-15T04:04:38.780Z,29.83
2023-02-15T04:07:06.807Z,31.07
2023-02-15T04:09:52.472Z,30.85
2023-02-15T04:12:19.639Z,29.88
2023-02-15T04:15:05.251Z,30.95
2023-02-15T04:17:32.385Z,29.33
2023-02-15T04:20:18.047Z,29.45
2023-02-15T04:23:03.947Z,29.48
2023-02-15T04:25:31.131Z,30.60
2023-02-15T04:27:58.357Z,28.75
2023-02-15T04:30:26.328Z,28.08
2023-02-15T04:32:53.557Z,29.00
2023-02-15T04:35:20.722Z,30.23
2023-02-15T04:37:47.911Z,29.37
2023-02-15T04:40:17.290Z,28.80
2023-02-15T04:42:46.058Z,30.45
2023-02-15T04:45:13.311Z,28.65
2023-02-15T04:47:40.444Z,28.83
2023-02-15T04:50:07.930Z,28.05
2023-02-15T04:52:35.162Z,27.30
2023-02-15T04:55:02.338Z,27.73
2023-02-15T04:57:29.538Z,26.75
2023-02-15T04:59:56.714Z,28.13
2023-02-15T05:02:23.855Z,27.55
2023-02-15T05:04:51.015Z,29.47
2023-02-15T05:07:18.640Z,29.43
2023-02-15T05:09:45.969Z,29.02
2023-02-15T05:12:13.097Z,30.10
2023-02-15T05:14:40.266Z,31.13
2023-02-15T05:17:07.413Z,29.75
2023-02-15T05:19:34.620Z,28.77
2023-02-15T05:22:01.863Z,27.77
2023-02-15T05:24:47.797Z,28.00
2023-02-15T05:27:33.470Z,28.60
2023-02-15T05:30:00.759Z,28.95
2023-02-15T05:32:28.245Z,29.02
2023-02-15T05:34:55.438Z,29.65
2023-02-15T05:37:22.578Z,29.20
2023-02-15T05:39:49.820Z,30.02
2023-02-15T05:42:16.975Z,30.30
2023-02-15T05:44:44.139Z,31.35
2023-02-15T05:47:11.329Z,31.08
2023-02-15T05:49:38.549Z,31.55
2023-02-15T05:52:05.805Z,32.00
2023-02-15T05:54:32.961Z,30.83
2023-02-15T05:57:00.127Z,33.35
2023-02-15T05:59:27.296Z,31.13
2023-02-15T06:01:54.511Z,32.65
2023-02-15T06:04:21.667Z,31.27
2023-02-15T06:06:48.862Z,32.28
2023-02-15T06:09:16.134Z,33.17
2023-02-15T06:11:43.328Z,33.45
2023-02-15T06:14:10.471Z,32.78
2023-02-15T06:16:37.703Z,32.47
2023-02-15T06:19:05.091Z,31.52
2023-02-15T06:21:32.346Z,31.08
2023-02-15T06:23:59.528Z,30.90
2023-02-15T06:26:26.741Z,33.95
2023-02-15T06:28:53.864Z,30.95
2023-02-15T06:31:21.266Z,31.83
2023-02-15T06:33:49.640Z,33.08
2023-02-15T06:36:16.865Z,31.17
2023-02-15T06:38:44.010Z,32.83
2023-02-15T06:41:11.252Z,31.00
2023-02-15T06:43:40.856Z,29.42
2023-02-15T06:46:08.287Z,31.77
2023-02-15T06:48:35.486Z,29.77
2023-02-15T06:51:02.635Z,27.77
2023-02-15T06:53:29.878Z,28.85
2023-02-15T06:56:07.648Z,31.83
2023-02-15T06:58:35.471Z,31.25
2023-02-15T07:01:02.645Z,28.42
2023-02-15T07:03:29.799Z,29.15
2023-02-15T07:05:57.374Z,30.88
2023-02-15T07:08:24.916Z,32.38
2023-02-15T07:10:52.502Z,33.83
2023-02-15T07:13:19.684Z,33.53
2023-02-15T07:15:47.232Z,34.58
2023-02-15T07:18:14.725Z,35.90
2023-02-15T07:20:42.678Z,36.65
2023-02-15T07:23:09.895Z,35.20
2023-02-15T07:25:37.172Z,35.60
2023-02-15T07:28:04.616Z,35.25
2023-02-15T07:30:31.900Z,36.75
2023-02-15T07:33:18.316Z,35.83
2023-02-15T07:35:51.858Z,39.00
2023-02-15T07:38:19.112Z,38.30
2023-02-15T07:40:46.264Z,41.40
2023-02-15T07:43:13.498Z,42.00
2023-02-15T07:45:40.770Z,40.83
2023-02-15T07:48:08.584Z,41.10
2023-02-15T07:50:35.736Z,41.20
2023-02-15T07:53:03.440Z,41.58
2023-02-15T07:55:30.634Z,38.85
2023-02-15T07:57:57.860Z,36.92
2023-02-15T08:00:25.991Z,39.42
2023-02-15T08:03:13.884Z,38.70
2023-02-15T08:05:41.817Z,40.00
2023-02-15T08:08:09.344Z,43.53
2023-02-15T08:10:58.283Z,40.47
2023-02-15T08:13:25.465Z,46.33
2023-02-15T08:15:52.835Z,47.50
2023-02-15T08:18:20.475Z,44.80
2023-02-15T08:20:50.950Z,45.67
2023-02-15T08:23:18.114Z,42.85
2023-02-15T08:25:45.317Z,42.33
2023-02-15T08:28:12.488Z,41.27
2023-02-15T08:30:39.649Z,41.93
2023-02-15T08:33:06.777Z,41.67
2023-02-15T08:35:33.964Z,40.70
2023-02-15T08:38:01.152Z,41.83
2023-02-15T08:40:28.344Z,40.55
2023-02-15T08:42:55.493Z,39.85
2023-02-15T08:45:22.736Z,38.35
2023-02-15T08:47:49.884Z,37.30
2023-02-15T08:50:17.076Z,35.83
2023-02-15T08:52:44.497Z,39.72
2023-02-15T08:55:11.640Z,40.58
2023-02-15T08:57:39.643Z,36.70
2023-02-15T09:00:07.149Z,37.03
2023-02-15T09:02:34.368Z,36.00
2023-02-15T09:05:01.687Z,37.53
2023-02-15T09:07:29.354Z,37.42
2023-02-15T09:09:56.515Z,37.72
2023-02-15T09:12:23.653Z,37.00
2023-02-15T09:14:50.861Z,36.85
2023-02-15T09:17:18.035Z,36.47
2023-02-15T09:19:45.198Z,34.15
2023-02-15T09:22:12.481Z,34.20
2023-02-15T09:24:39.622Z,35.67
2023-02-15T09:27:06.776Z,33.57
2023-02-15T09:29:34.238Z,33.85
2023-02-15T09:32:01.520Z,32.08
2023-02-15T09:34:28.738Z,32.40
2023-02-15T09:36:55.874Z,36.17
2023-02-15T09:39:28.926Z,36.60
2023-02-15T09:42:02.443Z,37.05
2023-02-15T09:44:32.355Z,34.97
2023-02-15T09:46:59.482Z,37.03
2023-02-15T09:49:35.768Z,33.65
2023-02-15T09:52:32.074Z,34.38
2023-02-15T09:55:20.101Z,34.23
2023-02-15T09:57:56.216Z,34.75
2023-02-15T10:00:42.663Z,35.03
2023-02-15T10:03:09.941Z,35.83
2023-02-15T10:05:42.996Z,36.03
2023-02-15T10:08:16.694Z,34.25
2023-02-15T10:10:46.653Z,34.72
2023-02-15T10:13:28.885Z,36.53
2023-02-15T10:16:12.039Z,33.20
2023-02-15T10:18:48.712Z,31.90
2023-02-15T10:21:36.142Z,31.27
2023-02-15T10:24:03.291Z,29.67
2023-02-15T10:26:33.281Z,30.83
2023-02-15T10:29:10.710Z,31.20
2023-02-15T10:31:45.365Z,29.88
2023-02-15T10:34:12.708Z,30.67
2023-02-15T10:36:40.335Z,29.52
2023-02-15T10:39:08.621Z,30.92
2023-02-15T10:41:38.952Z,30.00
2023-02-15T10:44:24.195Z,30.42
2023-02-15T10:47:12.889Z,28.90
2023-02-15T10:50:03.427Z,29.63
2023-02-15T10:52:39.835Z,31.08
2023-02-15T10:55:13.046Z,30.52
2023-02-15T10:57:43.872Z,31.33
2023-02-15T11:00:15.878Z,28.88
2023-02-15T11:02:57.023Z,29.70
2023-02-15T11:05:33.336Z,28.25
2023-02-15T11:08:00.923Z,27.13
2023-02-15T11:10:44.982Z,27.13
2023-02-15T11:13:16.110Z,28.70
2023-02-15T11:15:45.318Z,27.42
2023-02-15T11:18:33.952Z,28.27
2023-02-15T11:21:19.802Z,30.88
2023-02-15T11:23:47.165Z,30.42
2023-02-15T11:26:33.069Z,30.17
2023-02-15T11:29:18.131Z,30.88
2023-02-15T11:31:46.354Z,32.07
2023-02-15T11:34:40.044Z,30.77
2023-02-15T11:37:09.078Z,33.58
2023-02-15T11:39:38.245Z,31.17
2023-02-15T11:42:11.881Z,29.98
2023-02-15T11:44:40.018Z,29.77
2023-02-15T11:47:11.624Z,28.57
2023-02-15T11:49:38.808Z,27.13
2023-02-15T11:52:09.805Z,27.88
2023-02-15T11:54:37.602Z,28.73
2023-02-15T11:57:06.647Z,27.17
2023-02-15T11:59:34.447Z,26.75
2023-02-15T12:02:01.705Z,29.35
2023-02-15T12:04:36.549Z,30.38
2023-02-15T12:07:05.723Z,31.38
2023-02-15T12:09:36.322Z,53.17
2023-02-15T12:12:23.675Z,94.78
2023-02-15T12:14:51.538Z,31.60
2023-02-15T12:17:18.952Z,31.65
2023-02-15T12:19:46.428Z,28.20
2023-02-15T12:22:21.666Z,36.90
2023-02-15T12:24:49.048Z,44.78
2023-02-15T12:27:20.087Z,28.98
2023-02-15T12:29:51.826Z,30.30
2023-02-15T12:32:29.778Z,28.70
2023-02-15T12:35:15.838Z,30.08
2023-02-15T12:37:53.104Z,26.15
2023-02-15T12:40:21.862Z,27.67
2023-02-15T12:42:49.421Z,28.50
2023-02-15T12:45:27.228Z,29.00
2023-02-15T12:48:29.916Z,27.55
2023-02-15T12:50:57.792Z,29.02
2023-02-15T12:53:32.087Z,26.75
2023-02-15T12:56:03.768Z,29.35
2023-02-15T12:58:31.538Z,28.23
2023-02-15T13:01:14.050Z,27.48
2023-02-15T13:03:53.097Z,28.77
2023-02-15T13:06:20.297Z,29.23
2023-02-15T13:08:48.168Z,29.17
2023-02-15T13:11:15.647Z,29.63
2023-02-15T13:13:53.050Z,30.17
2023-02-15T13:16:22.506Z,29.38
2023-02-15T13:18:49.704Z,30.63
2023-02-15T13:21:20.600Z,29.00
2023-02-15T13:23:49.359Z,31.30
2023-02-15T13:26:17.820Z,31.15
2023-02-15T13:28:48.778Z,29.23
2023-02-15T13:31:16.831Z,28.63
2023-02-15T13:33:46.432Z,29.05
2023-02-15T13:36:33.852Z,32.15
2023-02-15T13:39:12.896Z,30.70
2023-02-15T13:41:44.180Z,30.30
2023-02-15T13:44:14.679Z,30.00
2023-02-15T13:46:44.960Z,29.40
2023-02-15T13:49:34.844Z,29.80
2023-02-15T13:52:11.158Z,30.40
2023-02-15T13:54:57.789Z,30.33
2023-02-15T13:57:40.402Z,29.05
2023-02-15T14:00:10.412Z,31.33
2023-02-15T14:02:45.782Z,28.38
2023-02-15T14:05:12.945Z,27.33
2023-02-15T14:07:40.905Z,26.80
2023-02-15T14:10:13.936Z,26.83
2023-02-15T14:13:04.299Z,27.80
2023-02-15T14:15:34.304Z,28.05
2023-02-15T14:18:16.855Z,27.08
2023-02-15T14:20:46.943Z,26.17
2023-02-15T14:23:20.830Z,25.30
2023-02-15T14:25:52.946Z,26.87
2023-02-15T14:28:31.110Z,27.45
2023-02-15T14:30:58.738Z,26.02
2023-02-15T14:33:43.780Z,27.98
2023-02-15T14:36:12.895Z,29.83
2023-02-15T14:38:43.193Z,27.27
2023-02-15T14:41:29.877Z,27.45
2023-02-15T14:44:00.040Z,28.17
2023-02-15T14:46:27.380Z,26.02
2023-02-15T14:48:58.286Z,25.58
2023-02-15T14:51:44.074Z,25.33
2023-02-15T14:54:11.831Z,24.70
2023-02-15T14:56:41.997Z,25.25
2023-02-15T14:59:21.725Z,24.27
2023-02-15T15:02:21.381Z,25.25
2023-02-15T15:04:54.304Z,26.77
2023-02-15T15:07:28.119Z,26.85
2023-02-15T15:10:16.682Z,24.33
2023-02-15T15:12:44.712Z,25.10
2023-02-15T15:15:33.118Z,26.20
2023-02-15T15:18:01.404Z,25.42
2023-02-15T15:20:28.547Z,27.52
2023-02-15T15:23:14.997Z,26.17
2023-02-15T15:25:57.680Z,26.70
2023-02-15T15:28:37.493Z,27.10
2023-02-15T15:31:19.947Z,26.70
2023-02-15T15:33:47.274Z,31.57
2023-02-15T15:36:24.390Z,26.58
2023-02-15T15:39:11.888Z,26.20
2023-02-15T15:41:39.032Z,27.58
2023-02-15T15:44:08.950Z,28.77
2023-02-15T15:46:54.712Z,27.17
2023-02-15T15:49:22.309Z,27.05
2023-02-15T15:51:49.490Z,27.63
2023-02-15T15:54:20.563Z,28.70
2023-02-15T15:57:07.387Z,25.58
2023-02-15T15:59:35.067Z,28.33
2023-02-15T16:02:05.786Z,32.95
2023-02-15T16:04:33.717Z,28.58
2023-02-15T16:07:22.472Z,28.02
2023-02-15T16:09:58.799Z,29.27
2023-02-15T16:12:26.580Z,29.55
2023-02-15T16:14:54.570Z,28.35
2023-02-15T16:17:25.870Z,27.23
2023-02-15T16:19:53.164Z,25.02
2023-02-15T16:22:21.406Z,25.38
2023-02-15T16:24:48.604Z,28.73
2023-02-15T16:27:28.021Z,26.20
2023-02-15T16:29:55.212Z,25.35
2023-02-15T16:32:23.346Z,25.13
2023-02-15T16:34:53.832Z,25.30
2023-02-15T16:37:28.369Z,27.20
2023-02-15T16:39:56.288Z,26.10
2023-02-15T16:42:23.512Z,27.13
2023-02-15T16:44:52.135Z,26.58
2023-02-15T16:47:29.845Z,27.87
2023-02-15T16:49:57.784Z,27.77
2023-02-15T16:52:25.590Z,27.48
2023-02-15T16:54:55.539Z,29.02
2023-02-15T16:57:23.457Z,28.98
2023-02-15T16:59:51.285Z,28.13
2023-02-15T17:02:43.040Z,28.00
2023-02-15T17:05:13.069Z,28.53
2023-02-15T17:07:41.317Z,29.50
2023-02-15T17:10:29.167Z,27.40
2023-02-15T17:12:56.815Z,28.80
2023-02-15T17:15:28.253Z,27.75
2023-02-15T17:17:57.117Z,30.50
2023-02-15T17:20:24.287Z,27.55
2023-02-15T17:22:51.543Z,27.13
2023-02-15T17:25:21.200Z,28.67
2023-02-15T17:27:52.585Z,28.33
2023-02-15T17:30:24.368Z,27.17
2023-02-15T17:32:56.047Z,29.58
2023-02-15T17:35:31.978Z,29.42
2023-02-15T17:38:06.411Z,28.70
2023-02-15T17:40:34.813Z,27.58
2023-02-15T17:43:01.928Z,31.30
2023-02-15T17:45:41.024Z,29.60
2023-02-15T17:48:16.622Z,27.30
2023-02-15T17:50:43.853Z,29.70
2023-02-15T17:53:11.030Z,28.63
2023-02-15T17:55:41.388Z,27.45
2023-02-15T17:58:09.579Z,25.50
2023-02-15T18:00:56.411Z,26.20
2023-02-15T18:03:42.163Z,24.08
2023-02-15T18:06:27.928Z,24.85
2023-02-15T18:09:13.564Z,25.10
2023-02-15T18:11:40.889Z,25.13
2023-02-15T18:14:09.403Z,25.90
2023-02-15T18:16:37.664Z,25.95
2023-02-15T18:19:05.219Z,27.92
2023-02-15T18:21:33.209Z,30.73
2023-02-15T18:24:00.375Z,30.77
2023-02-15T18:26:27.658Z,29.77
2023-02-15T18:28:54.868Z,22.80
2023-02-15T18:31:22.217Z,24.17
2023-02-15T18:33:49.875Z,24.60
2023-02-15T18:36:24.238Z,24.00
2023-02-15T18:38:53.380Z,25.48
2023-02-15T18:41:20.834Z,26.13
2023-02-15T18:43:49.468Z,28.70
2023-02-15T18:46:17.155Z,25.55
2023-02-15T18:48:44.511Z,25.20
2023-02-15T18:51:21.763Z,28.40
2023-02-15T18:53:49.512Z,26.00
2023-02-15T18:56:17.463Z,25.48
2023-02-15T18:58:46.817Z,26.05
2023-02-15T19:01:17.059Z,22.92
2023-02-15T19:03:53.481Z,25.27
2023-02-15T19:06:21.766Z,25.38
2023-02-15T19:08:49.240Z,25.60
2023-02-15T19:11:18.556Z,25.42
2023-02-15T19:13:47.067Z,24.75
2023-02-15T19:16:33.640Z,24.63
2023-02-15T19:19:00.870Z,23.73
2023-02-15T19:21:28.297Z,26.98
2023-02-15T19:24:02.960Z,24.65
2023-02-15T19:26:44.591Z,26.55
2023-02-15T19:29:16.438Z,24.65
2023-02-15T19:31:43.778Z,24.05
2023-02-15T19:34:15.402Z,24.52
2023-02-15T19:36:43.373Z,25.83
2023-02-15T19:39:16.445Z,24.98
2023-02-15T19:41:43.699Z,26.00
2023-02-15T19:44:10.858Z,26.90
2023-02-15T19:46:38.589Z,25.52
2023-02-15T19:49:05.780Z,25.88
2023-02-15T19:51:34.070Z,23.85
2023-02-15T19:54:01.268Z,31.75
2023-02-15T19:56:28.451Z,38.63
2023-02-15T19:58:57.808Z,43.38
2023-02-15T20:01:25.498Z,31.08
2023-02-15T20:03:53.401Z,27.90
2023-02-15T20:06:21.089Z,30.67
2023-02-15T20:08:48.236Z,58.88
2023-02-15T20:11:15.409Z,67.15
2023-02-15T20:13:42.539Z,42.83
2023-02-15T20:16:09.918Z,25.83
2023-02-15T20:18:37.549Z,23.75
2023-02-15T20:21:05.191Z,24.55
2023-02-15T20:23:33.742Z,36.17
2023-02-15T20:26:01.517Z,23.05
2023-02-15T20:28:29.563Z,22.27
2023-02-15T20:30:56.848Z,25.27
2023-02-15T20:33:24.090Z,21.67
2023-02-15T20:35:51.400Z,23.83
2023-02-15T20:38:26.688Z,23.43
2023-02-15T20:41:12.415Z,24.05
2023-02-15T20:43:39.577Z,22.25
2023-02-15T20:46:07.646Z,23.80
2023-02-15T20:48:35.054Z,23.77
2023-02-15T20:51:02.792Z,22.30
2023-02-15T20:53:30.307Z,23.55
2023-02-15T20:55:57.492Z,25.33
2023-02-15T20:58:26.084Z,23.70
2023-02-15T21:00:53.246Z,26.50
2023-02-15T21:03:21.733Z,22.60
2023-02-15T21:05:49.783Z,22.67
2023-02-15T21:08:18.500Z,22.35
2023-02-15T21:10:46.040Z,21.33
2023-02-15T21:13:22.222Z,22.33
2023-02-15T21:15:50.020Z,21.13
2023-02-15T21:18:21.694Z,21.38
2023-02-15T21:20:49.830Z,21.02
2023-02-15T21:23:17.573Z,21.35
2023-02-15T21:25:46.156Z,21.48
2023-02-15T21:28:20.501Z,21.13
2023-02-15T21:30:48.697Z,21.48
2023-02-15T21:33:16.222Z,21.92
2023-02-15T21:35:44.125Z,24.23
2023-02-15T21:38:15.159Z,22.48
2023-02-15T21:40:42.315Z,21.40
2023-02-15T21:43:39.009Z,20.85
2023-02-15T21:46:37.848Z,23.67
2023-02-15T21:49:07.195Z,20.05
2023-02-15T21:51:53.185Z,19.67
2023-02-15T21:54:20.513Z,18.65
2023-02-15T21:56:48.800Z,20.40
2023-02-15T21:59:16.578Z,20.90
2023-02-15T22:01:45.825Z,21.75
2023-02-15T22:04:31.316Z,22.33
2023-02-15T22:06:59.077Z,21.55
2023-02-15T22:09:27.404Z,24.25
2023-02-15T22:11:54.760Z,22.23
2023-02-15T22:14:31.100Z,21.55
2023-02-15T22:16:59.352Z,22.20
2023-02-15T22:19:26.512Z,22.00
2023-02-15T22:21:53.803Z,20.70
2023-02-15T22:24:21.173Z,21.70
2023-02-15T22:26:48.504Z,20.55
2023-02-15T22:29:17.078Z,20.92
2023-02-15T22:31:44.341Z,20.88
2023-02-15T22:34:38.028Z,21.60
2023-02-15T22:37:06.011Z,20.38
2023-02-15T22:39:34.029Z,20.13
2023-02-15T22:42:01.192Z,20.83
2023-02-15T22:44:29.911Z,21.73
2023-02-15T22:46:57.059Z,21.73
2023-02-15T22:49:24.245Z,20.83
2023-02-15T22:51:51.549Z,21.15
2023-02-15T22:54:18.828Z,22.30
2023-02-15T22:56:47.790Z,19.55
2023-02-15T22:59:17.929Z,19.73
2023-02-15T23:01:45.106Z,20.77
2023-02-15T23:04:16.030Z,20.77
2023-02-15T23:06:43.391Z,22.23
2023-02-15T23:09:10.723Z,23.92
2023-02-15T23:11:37.992Z,22.55
2023-02-15T23:14:05.776Z,21.63
2023-02-15T23:16:34.738Z,21.57
2023-02-15T23:19:01.928Z,21.05
2023-02-15T23:21:29.726Z,22.40
2023-02-15T23:23:58.308Z,21.30
2023-02-15T23:26:29.561Z,23.38
2023-02-15T23:28:57.299Z,22.33
2023-02-15T23:31:35.045Z,21.80
2023-02-15T23:34:02.493Z,21.20
2023-02-15T23:36:47.859Z,20.77
2023-02-15T23:39:34.538Z,20.90
2023-02-15T23:42:02.280Z,19.55
2023-02-15T23:44:29.824Z,21.05
2023-02-15T23:46:57.320Z,19.13
2023-02-15T23:49:24.473Z,19.90
2023-02-15T23:51:52.666Z,21.45
2023-02-15T23:54:20.393Z,21.25
2023-02-15T23:56:48.328Z,21.00
2023-02-15T23:59:16.458Z,19.42
